Aeroporto :
LOGIN :

Iscrizione | Disclaimer

   EN    FR    IT 

 










Sommario :    VFR   VFR Marginale   IFR   IFR Intensivo   IFR Molto Intensivo
Visibilità : 
Base nubi : 
>= 8 km
>= 3000ft
5 / 8 km
1000 / 3000 ft
1500m / 5 km
500 / 1000 ft
800 / 1500m
200 / 500 ft
< 800m
< 200 ft
Simboli :   Temporali  Nebbia  Neve Forte  Precipitazioni Forti  Vento > 20 kt
SIGMETs :   Varie  Temporali  Ghiacco  Turbolenza  Onda orograficha  Ceneri Vulcaniche






- Altitudine del aeroporto : 412 ft
- Codice IATA : ORE


LFOJ - Orleans

ULTIMO METAR :
  • 112100Z AUTO 27016KT 9999 -RA BKN013 OVC039 04/03 Q1007 TEMPO 26017G27KT 4000 -SHRA BKN020CB

METARs OBSOLETI :
  • 112030Z AUTO 26010KT 9999 -RA SCT016/// BKN023/// OVC029/// ///TCU 05/04 Q1007 TEMPO 26017G27KT 4000 -SHRA BKN020CB
  • 112000Z AUTO 28013KT 9000 -RA SCT009 OVC016 05/04 Q1007 TEMPO 26017G27KT 4000 -SHRA BKN020CB
  • 111930Z AUTO 22011KT 7000 RA BKN011 BKN019 BKN025 06/05 Q1007 TEMPO 26017G27KT 4000 -SHRA BKN020CB
  • 111900Z AUTO 21014KT 9999 -DZ BKN015/// BKN026/// BKN041/// ///TCU 06/05 Q1007 TEMPO 26017G27KT 4000 -SHRA BKN020CB
  • 111830Z AUTO 21012KT 9999 -RADZ FEW017 BKN027 BKN044 06/05 Q1007 TEMPO 26017G27KT 4000 -SHRA BKN020CB

TAF TAF LFOJ
Valido dal 11 a 21 ore il 12 a 21 ore UTC


112000Z 1121/1221 28012KT 9999 SCT008 BKN015
TEMPO 1121/1123 26017G27KT 4000 -SHRA BKN020CB
BECMG 1122/1201 BKN013
BECMG 1204/1206 BKN009
BECMG 1208/1210 BKN015 BKN030



MetMap, La meteo Aeronautica in un colpo d'occhio ! - Copyright ORBIFLY Dicembre 2007 - Disclaimer

ORBIFLY MET'MAP TEAM :

Programmazione e sviluppo : Alexandra Zaïnal
Concezione : Baudouin d'Aumeries
Aiuto per la programmazione : Marc-Olivier Méhu
Supporto tecnico e logistico : Manuel Goepfert
Aiuto per la traduzione : Arnaldo La Scala

Contatto : metmap@orbifly.com




FONTI E CREDITI :

   NOAA